地図

経路データ

SID SEASON NUMBER BASIN SUBBASIN NAME ISO_TIME NATURE LAT LON WMO_WIND WMO_PRES WMO_AGENCY TRACK_TYPE DIST2LAND LANDFALL IFLAG USA_AGENCY USA_ATCF_ID USA_LAT USA_LON USA_RECORD USA_STATUS USA_WIND USA_PRES USA_SSHS USA_R34_NE USA_R34_SE USA_R34_SW USA_R34_NW USA_R50_NE USA_R50_SE USA_R50_SW USA_R50_NW USA_R64_NE USA_R64_SE USA_R64_SW USA_R64_NW USA_POCI USA_ROCI USA_RMW USA_EYE TOKYO_LAT TOKYO_LON TOKYO_GRADE TOKYO_WIND TOKYO_PRES TOKYO_R50_DIR TOKYO_R50_LONG TOKYO_R50_SHORT TOKYO_R30_DIR TOKYO_R30_LONG TOKYO_R30_SHORT TOKYO_LAND CMA_LAT CMA_LON CMA_CAT CMA_WIND CMA_PRES HKO_LAT HKO_LON HKO_CAT HKO_WIND HKO_PRES NEWDELHI_LAT NEWDELHI_LON NEWDELHI_GRADE NEWDELHI_WIND NEWDELHI_PRES NEWDELHI_CI NEWDELHI_DP NEWDELHI_POCI REUNION_LAT REUNION_LON REUNION_TYPE REUNION_WIND REUNION_PRES REUNION_TNUM REUNION_CI REUNION_RMW REUNION_R34_NE REUNION_R34_SE REUNION_R34_SW REUNION_R34_NW REUNION_R50_NE REUNION_R50_SE REUNION_R50_SW REUNION_R50_NW REUNION_R64_NE REUNION_R64_SE REUNION_R64_SW REUNION_R64_NW BOM_LAT BOM_LON BOM_TYPE BOM_WIND BOM_PRES BOM_TNUM BOM_CI BOM_RMW BOM_R34_NE BOM_R34_SE BOM_R34_SW BOM_R34_NW BOM_R50_NE BOM_R50_SE BOM_R50_SW BOM_R50_NW BOM_R64_NE BOM_R64_SE BOM_R64_SW BOM_R64_NW BOM_ROCI BOM_POCI BOM_EYE BOM_POS_METHOD BOM_PRES_METHOD NADI_LAT NADI_LON NADI_CAT NADI_WIND NADI_PRES WELLINGTON_LAT WELLINGTON_LON WELLINGTON_WIND WELLINGTON_PRES DS824_LAT DS824_LON DS824_STAGE DS824_WIND DS824_PRES TD9636_LAT TD9636_LON TD9636_STAGE TD9636_WIND TD9636_PRES TD9635_LAT TD9635_LON TD9635_WIND TD9635_PRES TD9635_ROCI NEUMANN_LAT NEUMANN_LON NEUMANN_CLASS NEUMANN_WIND NEUMANN_PRES MLC_LAT MLC_LON MLC_CLASS MLC_WIND MLC_PRES USA_GUST BOM_GUST BOM_GUST_PER REUNION_GUST REUNION_GUST_PER USA_SEAHGT USA_SEARAD_NE USA_SEARAD_SE USA_SEARAD_SW USA_SEARAD_NW STORM_SPEED STORM_DIR
1862070S15423 1862 10 SI MM NOT_NAMED 1862-03-10 18:00:00 NR -15.0000 63.1000 main 808 777 __________O___ -1 -15.0000 63.1000 7 7 258
1862070S15423 1862 10 SI MM NOT_NAMED 1862-03-10 21:00:00 NR -15.0755 62.7330 main 770 749 __________P___ -1 -15.0755 62.7330 7 7 258
1862070S15423 1862 10 SI MM NOT_NAMED 1862-03-11 00:00:00 NR -15.1506 62.3727 main 740 712 __________P___ -1 -15.1506 62.3727 7 7 258
1862070S15423 1862 10 SI MM NOT_NAMED 1862-03-11 03:00:00 NR -15.2253 62.0261 main 712 684 __________P___ -1 -15.2253 62.0261 7 7 257
1862070S15423 1862 10 SI MM NOT_NAMED 1862-03-11 06:00:00 NR -15.3000 61.7000 main 684 655 __________O___ -1 -15.3000 61.7000 7 6 256
1862070S15423 1862 10 SI MM NOT_NAMED 1862-03-11 09:00:00 NR -15.3748 61.3993 main 655 637 __________P___ -1 -15.3748 61.3993 7 6 255
1862070S15423 1862 10 SI MM NOT_NAMED 1862-03-11 12:00:00 NR -15.4497 61.1199 main 637 616 __________P___ -1 -15.4497 61.1199 7 5 254
1862070S15423 1862 10 SI MM NOT_NAMED 1862-03-11 15:00:00 NR -15.5248 60.8556 main 616 589 __________P___ -1 -15.5248 60.8556 7 5 253
1862070S15423 1862 10 SI MM NOT_NAMED 1862-03-11 18:00:00 NR -15.6000 60.6000 main 589 569 __________O___ -1 -15.6000 60.6000 7 5 253
1862070S15423 1862 10 SI MM NOT_NAMED 1862-03-11 21:00:00 NR -15.6748 60.3508 main 569 553 __________P___ -1 -15.6748 60.3508 7 5 252
1862070S15423 1862 10 SI MM NOT_NAMED 1862-03-12 00:00:00 NR -15.7497 60.1074 main 553 534 __________P___ -1 -15.7497 60.1074 7 5 252
1862070S15423 1862 10 SI MM NOT_NAMED 1862-03-12 03:00:00 NR -15.8248 59.8602 main 534 511 __________P___ -1 -15.8248 59.8602 7 5 253
1862070S15423 1862 10 SI MM NOT_NAMED 1862-03-12 06:00:00 NR -15.9000 59.6000 main 511 488 __________O___ -1 -15.9000 59.6000 7 5 255
1862070S15423 1862 10 SI MM NOT_NAMED 1862-03-12 09:00:00 NR -15.9669 59.3102 main 488 478 __________P___ -1 -15.9669 59.3102 7 6 257
1862070S15423 1862 10 SI MM NOT_NAMED 1862-03-12 12:00:00 NR -16.0350 59.0073 main 478 459 __________P___ -1 -16.0350 59.0073 7 6 256
1862070S15423 1862 10 SI MM NOT_NAMED 1862-03-12 15:00:00 NR -16.1106 58.7008 main 459 442 __________P___ -1 -16.1106 58.7008 7 6 254
1862070S15423 1862 10 SI MM NOT_NAMED 1862-03-12 18:00:00 NR -16.2000 58.4000 main 442 427 __________O___ -1 -16.2000 58.4000 7 6 251
1862070S15423 1862 10 SI MM NOT_NAMED 1862-03-12 21:00:00 NR -16.3076 58.1121 main 427 414 __________P___ -1 -16.3076 58.1121 7 6 247
1862070S15423 1862 10 SI MM NOT_NAMED 1862-03-13 00:00:00 NR -16.4302 57.8354 main 414 391 __________P___ -1 -16.4302 57.8354 7 6 244
1862070S15423 1862 10 SI MM NOT_NAMED 1862-03-13 03:00:00 NR -16.5627 57.5660 main 391 380 __________P___ -1 -16.5627 57.5660 7 6 242
1862070S15423 1862 10 SI MM NOT_NAMED 1862-03-13 06:00:00 NR -16.7000 57.3000 main 380 __________O___ -1 -16.7000 57.3000 7 6 242

IBTrACS Databaseについて

本データベースは、米国NOAAが公開する1842年以降の世界の熱帯低気圧のベストトラックデータアーカイブInternational Best Track Archive for Climate Stewardship (IBTrACS)を、ウェブで閲覧しやすい形式に変換したものです。

最終更新日:2021-10-08